createdAt,value
2022-09-04T00:01:23.125Z,66.83
2022-09-04T00:04:31.690Z,67.75
2022-09-04T00:07:26.144Z,67.53
2022-09-04T00:10:19.142Z,68.53
2022-09-04T00:13:04.756Z,68.74
2022-09-04T00:15:36.383Z,68.46
2022-09-04T00:18:10.440Z,69.48
2022-09-04T00:20:39.458Z,69.14
2022-09-04T00:23:31.344Z,70.55
2022-09-04T00:26:09.765Z,70.64
2022-09-04T00:28:42.929Z,69.92
2022-09-04T00:31:33.934Z,71.09
2022-09-04T00:34:09.223Z,71.20
2022-09-04T00:36:40.916Z,70.81
2022-09-04T00:39:15.059Z,71.46
2022-09-04T00:42:19.938Z,72.33
2022-09-04T00:45:24.146Z,72.37
2022-09-04T00:48:15.720Z,72.11
2022-09-04T00:50:56.387Z,71.99
2022-09-04T00:53:59.462Z,73.36
2022-09-04T00:56:31.620Z,73.41
2022-09-04T00:59:19.898Z,73.50
2022-09-04T01:01:46.464Z,72.65
2022-09-04T01:04:28.171Z,73.51
2022-09-04T01:07:11.219Z,73.02
2022-09-04T01:10:08.275Z,73.32
2022-09-04T01:12:49.300Z,73.84
2022-09-04T01:15:28.119Z,74.14
2022-09-04T01:18:06.449Z,75.34
2022-09-04T01:20:32.757Z,74.80
2022-09-04T01:23:20.437Z,75.71
2022-09-04T01:26:01.075Z,74.88
2022-09-04T01:28:50.732Z,76.57
2022-09-04T01:31:29.301Z,75.91
2022-09-04T01:34:08.917Z,76.77
2022-09-04T01:36:47.621Z,76.24
2022-09-04T01:39:14.148Z,75.65
2022-09-04T01:42:00.181Z,77.45
2022-09-04T01:44:26.549Z,77.42
2022-09-04T01:47:00.692Z,77.75
2022-09-04T01:49:47.425Z,77.43
2022-09-04T01:52:29.957Z,77.53
2022-09-04T01:55:13.617Z,75.86
2022-09-04T01:57:49.814Z,75.43
2022-09-04T02:00:18.870Z,75.01
2022-09-04T02:02:53.302Z,74.38
2022-09-04T02:05:35.100Z,75.19
2022-09-04T02:08:55.552Z,75.92
2022-09-04T02:11:28.238Z,76.94
2022-09-04T02:14:18.797Z,76.96
2022-09-04T02:17:09.328Z,76.51
2022-09-04T02:19:59.911Z,77.00
2022-09-04T02:22:41.728Z,76.47
2022-09-04T02:25:21.757Z,76.29
2022-09-04T02:28:21.933Z,76.29
2022-09-04T02:31:04.624Z,76.66
2022-09-04T02:33:53.999Z,77.18
2022-09-04T02:36:38.364Z,77.05
2022-09-04T02:39:23.005Z,77.20
2022-09-04T02:42:04.815Z,76.84
2022-09-04T02:44:50.121Z,77.65
2022-09-04T02:47:45.168Z,78.17
2022-09-04T02:50:21.346Z,77.19
2022-09-04T02:53:04.388Z,77.31
2022-09-04T02:55:49.033Z,77.67
2022-09-04T02:58:26.945Z,77.70
2022-09-04T03:01:07.377Z,77.46
2022-09-04T03:03:46.861Z,77.63
2022-09-04T03:06:25.584Z,77.44
2022-09-04T03:08:54.380Z,77.11
2022-09-04T03:11:30.910Z,77.15
2022-09-04T03:14:15.756Z,77.44
2022-09-04T03:16:51.242Z,77.02
2022-09-04T03:19:23.873Z,78.10
2022-09-04T03:21:55.368Z,78.03
2022-09-04T03:24:49.936Z,78.42
2022-09-04T03:27:17.912Z,78.13
2022-09-04T03:29:53.126Z,77.69
2022-09-04T03:33:07.641Z,78.82
2022-09-04T03:35:47.924Z,77.90
2022-09-04T03:38:45.301Z,78.69
2022-09-04T03:41:37.322Z,79.62
2022-09-04T03:44:27.484Z,79.54
2022-09-04T03:47:12.837Z,79.80
2022-09-04T03:50:14.583Z,79.43
2022-09-04T03:52:59.903Z,79.31
2022-09-04T03:55:38.217Z,79.71
2022-09-04T03:58:28.880Z,79.54
2022-09-04T04:01:28.423Z,80.68
2022-09-04T04:04:11.982Z,79.75
2022-09-04T04:07:02.462Z,79.14
2022-09-04T04:09:48.489Z,80.63
2022-09-04T04:12:23.837Z,80.53
2022-09-04T04:15:08.022Z,79.58
2022-09-04T04:17:43.852Z,79.63
2022-09-04T04:20:23.193Z,79.21
2022-09-04T04:23:06.731Z,80.00
2022-09-04T04:26:01.206Z,80.15
2022-09-04T04:28:39.613Z,79.74
2022-09-04T04:31:42.164Z,79.75
2022-09-04T04:34:57.776Z,79.70
2022-09-04T04:37:42.036Z,80.26
2022-09-04T04:40:33.096Z,80.87
2022-09-04T04:43:12.595Z,80.78
2022-09-04T04:45:44.911Z,80.54
2022-09-04T04:48:39.111Z,80.11
2022-09-04T04:51:42.456Z,80.14
2022-09-04T04:54:23.756Z,80.21
2022-09-04T04:57:12.434Z,80.45
2022-09-04T05:00:05.375Z,81.16
2022-09-04T05:02:43.655Z,80.46
2022-09-04T05:05:50.248Z,80.58
2022-09-04T05:08:31.550Z,80.59
2022-09-04T05:11:22.740Z,80.99
2022-09-04T05:14:11.873Z,80.80
2022-09-04T05:17:05.256Z,81.44
2022-09-04T05:20:00.480Z,81.38
2022-09-04T05:22:38.110Z,81.67
2022-09-04T05:25:11.490Z,81.19
2022-09-04T05:27:56.433Z,81.51
2022-09-04T05:30:32.125Z,80.44
2022-09-04T05:33:10.793Z,80.41
2022-09-04T05:35:51.390Z,80.33
2022-09-04T05:38:30.709Z,79.04
2022-09-04T05:41:21.671Z,77.98
2022-09-04T05:44:09.441Z,76.06
2022-09-04T05:46:58.071Z,73.96
2022-09-04T05:49:46.033Z,72.92
2022-09-04T05:52:40.690Z,72.25
2022-09-04T05:55:39.645Z,70.72
2022-09-04T05:58:24.767Z,69.82
2022-09-04T06:01:29.787Z,67.70
2022-09-04T06:04:05.078Z,65.88
2022-09-04T06:06:53.758Z,64.65
2022-09-04T06:09:34.142Z,63.45
2022-09-04T06:12:46.458Z,61.08
2022-09-04T06:15:27.901Z,60.71
2022-09-04T06:18:26.989Z,58.69
2022-09-04T06:21:14.622Z,59.65
2022-09-04T06:24:24.806Z,57.88
2022-09-04T06:26:56.968Z,57.94
2022-09-04T06:29:50.418Z,57.84
2022-09-04T06:32:49.276Z,57.57
2022-09-04T06:35:53.259Z,57.91
2022-09-04T06:38:56.350Z,56.88
2022-09-04T06:41:37.789Z,55.44
2022-09-04T06:44:13.383Z,54.16
2022-09-04T06:46:48.003Z,53.87
2022-09-04T06:49:38.541Z,53.33
2022-09-04T06:52:10.921Z,52.97
2022-09-04T06:54:49.793Z,52.53
2022-09-04T06:57:34.392Z,52.33
2022-09-04T07:00:04.792Z,50.48
2022-09-04T07:02:49.898Z,51.36
2022-09-04T07:05:44.149Z,50.14
2022-09-04T07:08:31.538Z,49.91
2022-09-04T07:11:25.750Z,50.11
2022-09-04T07:14:27.226Z,49.90
2022-09-04T07:17:30.637Z,50.27
2022-09-04T07:19:56.916Z,49.84
2022-09-04T07:22:46.081Z,49.21
2022-09-04T07:25:21.622Z,48.83
2022-09-04T07:28:03.758Z,48.12
2022-09-04T07:30:36.769Z,47.91
2022-09-04T07:33:11.561Z,48.21
2022-09-04T07:36:02.324Z,49.18
2022-09-04T07:38:52.071Z,48.55
2022-09-04T07:41:43.316Z,48.96
2022-09-04T07:44:22.302Z,48.19
2022-09-04T07:47:13.516Z,47.86
2022-09-04T07:50:09.275Z,47.97
2022-09-04T07:52:44.822Z,47.73
2022-09-04T07:55:35.388Z,47.80
2022-09-04T07:58:07.633Z,47.59
2022-09-04T08:00:50.021Z,47.87
2022-09-04T08:03:56.945Z,47.41
2022-09-04T08:06:49.454Z,48.18
2022-09-04T08:09:27.966Z,48.15
2022-09-04T08:12:09.591Z,47.96
2022-09-04T08:15:02.825Z,48.31
2022-09-04T08:18:03.646Z,47.34
2022-09-04T08:20:59.101Z,46.71
2022-09-04T08:23:34.188Z,46.60
2022-09-04T08:26:25.552Z,47.06
2022-09-04T08:29:14.241Z,45.56
2022-09-04T08:31:52.151Z,45.27
2022-09-04T08:34:43.520Z,44.96
2022-09-04T08:37:09.792Z,44.85
2022-09-04T08:40:07.016Z,44.56
2022-09-04T08:43:05.111Z,44.02
2022-09-04T08:46:12.084Z,43.68
2022-09-04T08:48:53.516Z,42.51
2022-09-04T08:51:35.162Z,42.68
2022-09-04T08:54:15.791Z,42.05
2022-09-04T08:56:58.449Z,42.20
2022-09-04T09:00:02.787Z,43.19
2022-09-04T09:03:04.726Z,42.42
2022-09-04T09:06:09.521Z,41.62
2022-09-04T09:08:54.369Z,42.83
2022-09-04T09:11:58.314Z,42.55
2022-09-04T09:14:51.845Z,43.27
2022-09-04T09:17:34.573Z,42.67
2022-09-04T09:20:23.058Z,42.30
2022-09-04T09:23:18.135Z,42.86
2022-09-04T09:26:22.719Z,43.01
2022-09-04T09:29:07.588Z,41.92
2022-09-04T09:31:43.828Z,42.40
2022-09-04T09:34:44.399Z,42.04
2022-09-04T09:37:39.028Z,41.98
2022-09-04T09:40:14.618Z,42.95
2022-09-04T09:43:13.361Z,42.25
2022-09-04T09:45:51.880Z,42.81
2022-09-04T09:48:55.902Z,42.44
2022-09-04T09:51:34.260Z,43.09
2022-09-04T09:54:35.031Z,43.24
2022-09-04T09:57:33.166Z,44.09
2022-09-04T10:00:16.206Z,43.31
2022-09-04T10:03:21.506Z,43.40
2022-09-04T10:06:09.766Z,44.14
2022-09-04T10:08:51.697Z,44.40
2022-09-04T10:11:50.322Z,43.86
2022-09-04T10:14:25.747Z,43.80
2022-09-04T10:17:08.605Z,43.46
2022-09-04T10:20:06.260Z,43.44
2022-09-04T10:23:01.876Z,44.44
2022-09-04T10:25:46.850Z,44.07
2022-09-04T10:28:37.972Z,43.24
2022-09-04T10:31:25.741Z,43.00
2022-09-04T10:34:10.293Z,42.54
2022-09-04T10:36:46.044Z,43.36
2022-09-04T10:39:37.227Z,41.98
2022-09-04T10:42:22.299Z,42.38
2022-09-04T10:45:25.100Z,41.80
2022-09-04T10:48:39.015Z,42.48
2022-09-04T10:51:25.786Z,41.58
2022-09-04T10:54:07.295Z,41.42
2022-09-04T10:57:05.016Z,40.73
2022-09-04T11:00:03.192Z,41.18
2022-09-04T11:02:45.697Z,41.45
2022-09-04T11:05:29.931Z,40.08
2022-09-04T11:08:09.161Z,40.99
2022-09-04T11:10:59.005Z,40.79
2022-09-04T11:13:53.049Z,39.79
2022-09-04T11:16:25.375Z,39.65
2022-09-04T11:18:51.712Z,39.95
2022-09-04T11:21:32.983Z,39.03
2022-09-04T11:24:22.835Z,39.41
2022-09-04T11:27:06.035Z,40.25
2022-09-04T11:29:50.421Z,40.04
2022-09-04T11:32:41.574Z,41.55
2022-09-04T11:35:35.176Z,40.74
2022-09-04T11:38:08.623Z,41.11
2022-09-04T11:40:55.523Z,41.00
2022-09-04T11:44:05.872Z,40.11
2022-09-04T11:47:01.841Z,40.36
2022-09-04T11:49:46.290Z,41.15
2022-09-04T11:52:25.061Z,40.96
2022-09-04T11:55:09.462Z,40.38
2022-09-04T11:58:13.888Z,41.33
2022-09-04T12:00:57.957Z,40.82
2022-09-04T12:03:39.202Z,40.47
2022-09-04T12:06:30.129Z,40.68
2022-09-04T12:09:17.954Z,40.38
2022-09-04T12:12:29.044Z,41.05
2022-09-04T12:15:12.228Z,40.63
2022-09-04T12:18:00.883Z,41.97
2022-09-04T12:20:48.960Z,41.49
2022-09-04T12:23:40.239Z,40.63
2022-09-04T12:26:51.184Z,40.77
2022-09-04T12:29:27.914Z,40.72
2022-09-04T12:32:30.669Z,40.78
2022-09-04T12:35:19.282Z,41.03
2022-09-04T12:38:13.869Z,41.92
2022-09-04T12:40:53.635Z,41.40
2022-09-04T12:43:49.113Z,41.26
2022-09-04T12:46:57.394Z,40.72
2022-09-04T12:49:37.648Z,41.16
2022-09-04T12:52:51.706Z,41.87
2022-09-04T12:55:38.279Z,41.82
2022-09-04T12:58:28.094Z,40.74
2022-09-04T13:01:23.898Z,40.13
2022-09-04T13:04:00.028Z,40.74
2022-09-04T13:06:35.400Z,41.23
2022-09-04T13:09:22.505Z,42.04
2022-09-04T13:12:04.222Z,41.80
2022-09-04T13:14:52.964Z,42.07
2022-09-04T13:17:34.364Z,42.15
2022-09-04T13:20:20.610Z,42.74
2022-09-04T13:23:04.036Z,42.11
2022-09-04T13:25:57.598Z,41.45
2022-09-04T13:28:49.724Z,41.78
2022-09-04T13:31:18.876Z,42.09
2022-09-04T13:34:03.831Z,41.09
2022-09-04T13:36:42.365Z,41.70
2022-09-04T13:39:51.018Z,41.03
2022-09-04T13:42:53.288Z,42.35
2022-09-04T13:45:29.733Z,42.64
2022-09-04T13:48:28.334Z,42.88
2022-09-04T13:51:00.805Z,42.94
2022-09-04T13:53:43.516Z,43.06
2022-09-04T13:56:16.782Z,43.30
2022-09-04T13:58:47.779Z,43.47
2022-09-04T14:01:18.328Z,42.96
2022-09-04T14:03:44.761Z,42.81
2022-09-04T14:06:14.770Z,42.66
2022-09-04T14:08:43.095Z,43.01
2022-09-04T14:11:40.258Z,43.64
2022-09-04T14:14:30.663Z,43.91
2022-09-04T14:16:58.045Z,44.18
2022-09-04T14:19:54.582Z,44.62
2022-09-04T14:22:55.070Z,45.10
2022-09-04T14:25:36.243Z,45.80
2022-09-04T14:28:19.438Z,45.55
2022-09-04T14:30:58.602Z,45.52
2022-09-04T14:33:28.446Z,45.03
2022-09-04T14:36:19.913Z,45.04
2022-09-04T14:39:12.521Z,45.88
2022-09-04T14:41:49.156Z,46.09
2022-09-04T14:44:47.354Z,46.66
2022-09-04T14:47:31.319Z,46.12
2022-09-04T14:50:00.241Z,45.89
2022-09-04T14:52:40.086Z,45.31
2022-09-04T14:55:14.165Z,45.64
2022-09-04T14:57:53.726Z,45.38
2022-09-04T15:00:21.632Z,46.20
2022-09-04T15:02:56.905Z,45.89
2022-09-04T15:05:37.287Z,44.67
2022-09-04T15:08:07.758Z,43.81
2022-09-04T15:10:43.089Z,43.81
2022-09-04T15:13:27.855Z,42.61
2022-09-04T15:16:10.882Z,42.60
2022-09-04T15:18:40.165Z,43.52
2022-09-04T15:21:21.019Z,44.09
2022-09-04T15:24:03.228Z,45.56
2022-09-04T15:26:40.673Z,44.25
2022-09-04T15:29:23.430Z,44.25
2022-09-04T15:31:59.397Z,45.41
2022-09-04T15:34:27.497Z,44.79
2022-09-04T15:36:54.574Z,45.13
2022-09-04T15:39:39.902Z,45.59
2022-09-04T15:42:13.614Z,45.49
2022-09-04T15:44:45.028Z,45.59
2022-09-04T15:47:17.120Z,45.29
2022-09-04T15:49:56.094Z,45.18
2022-09-04T15:52:37.734Z,45.31
2022-09-04T15:55:10.396Z,44.33
2022-09-04T15:57:42.815Z,44.19
2022-09-04T16:00:15.711Z,44.34
2022-09-04T16:03:02.052Z,44.19
2022-09-04T16:05:43.935Z,44.87
2022-09-04T16:08:28.686Z,45.01
2022-09-04T16:11:05.794Z,44.91
2022-09-04T16:13:41.838Z,45.68
2022-09-04T16:16:13.837Z,45.10
2022-09-04T16:18:49.294Z,45.15
2022-09-04T16:21:48.038Z,45.46
2022-09-04T16:24:22.824Z,45.27
2022-09-04T16:26:52.796Z,45.54
2022-09-04T16:30:00.880Z,45.16
2022-09-04T16:32:29.637Z,44.79
2022-09-04T16:35:01.954Z,45.14
2022-09-04T16:37:34.234Z,45.31
2022-09-04T16:40:12.661Z,45.24
2022-09-04T16:42:58.463Z,44.90
2022-09-04T16:45:32.772Z,45.02
2022-09-04T16:48:34.188Z,45.50
2022-09-04T16:51:25.030Z,45.67
2022-09-04T16:53:55.262Z,45.50
2022-09-04T16:56:44.223Z,46.18
2022-09-04T16:59:53.159Z,46.67
2022-09-04T17:02:40.888Z,47.06
2022-09-04T17:05:20.745Z,47.65
2022-09-04T17:07:59.344Z,47.32
2022-09-04T17:10:36.443Z,47.38
2022-09-04T17:13:31.862Z,47.69
2022-09-04T17:16:17.543Z,47.88
2022-09-04T17:18:52.741Z,48.35
2022-09-04T17:24:07.986Z,48.38
2022-09-04T17:28:58.705Z,48.57
2022-09-04T17:29:16.014Z,48.65
2022-09-04T17:30:35.050Z,48.88
2022-09-04T17:39:21.338Z,49.07
2022-09-04T17:40:42.298Z,49.65
2022-09-04T17:40:43.929Z,49.31
2022-09-04T17:42:29.463Z,49.60
2022-09-04T17:45:08.310Z,49.57
2022-09-04T17:47:41.230Z,49.82
2022-09-04T17:50:18.283Z,50.21
2022-09-04T17:52:59.666Z,50.67
2022-09-04T17:55:28.644Z,50.39
2022-09-04T17:58:23.727Z,51.47
2022-09-04T18:01:16.868Z,51.24
2022-09-04T18:04:21.160Z,51.68
2022-09-04T18:06:40.558Z,52.08
2022-09-04T18:09:18.559Z,52.07
2022-09-04T18:12:16.755Z,52.17
2022-09-04T18:15:25.250Z,53.27
2022-09-04T18:18:07.757Z,55.20
2022-09-04T18:20:51.583Z,55.30
2022-09-04T18:23:30.170Z,55.25
2022-09-04T18:26:11.451Z,56.26
2022-09-04T18:28:58.966Z,55.76
2022-09-04T18:37:09.373Z,57.50
2022-09-04T18:37:26.561Z,56.88
2022-09-04T18:37:46.226Z,57.75
2022-09-04T18:42:10.668Z,58.81
2022-09-04T18:49:51.054Z,58.91
2022-09-04T18:50:32.963Z,59.59
2022-09-04T18:51:04.373Z,60.19
2022-09-04T18:51:55.415Z,60.02
2022-09-04T18:54:29.643Z,60.93
2022-09-04T18:57:06.659Z,60.73
2022-09-04T18:59:42.256Z,61.37
2022-09-04T19:02:14.814Z,62.17
2022-09-04T19:04:46.746Z,62.78
2022-09-04T19:07:25.673Z,64.84
2022-09-04T19:09:58.112Z,64.00
2022-09-04T19:12:33.740Z,63.34
2022-09-04T19:15:36.113Z,64.41
2022-09-04T19:18:13.082Z,64.57
2022-09-04T19:20:50.281Z,64.99
2022-09-04T19:23:33.198Z,64.86
2022-09-04T19:26:06.287Z,65.16
2022-09-04T19:28:52.415Z,65.75
2022-09-04T19:31:30.760Z,66.14
2022-09-04T19:34:14.376Z,66.73
2022-09-04T19:36:46.536Z,65.94
2022-09-04T19:46:00.128Z,66.99
2022-09-04T19:46:04.112Z,65.79
2022-09-04T19:46:18.032Z,66.84
2022-09-04T19:48:07.676Z,69.27
2022-09-04T19:53:32.176Z,68.29
2022-09-04T19:53:48.538Z,68.99
2022-09-04T19:57:31.108Z,69.15
2022-09-04T20:00:31.056Z,68.97
2022-09-04T20:02:53.412Z,69.36
2022-09-04T20:05:34.970Z,70.23
2022-09-04T20:08:13.531Z,70.56
2022-09-04T20:10:51.143Z,70.73
2022-09-04T20:13:49.542Z,71.33
2022-09-04T20:16:23.304Z,71.38
2022-09-04T20:19:28.598Z,72.34
2022-09-04T20:22:21.300Z,71.07
2022-09-04T20:24:58.533Z,71.13
2022-09-04T20:27:43.261Z,71.63
2022-09-04T20:30:17.184Z,71.45
2022-09-04T20:32:46.850Z,71.48
2022-09-04T20:35:42.934Z,72.02
2022-09-04T20:38:23.828Z,72.99
2022-09-04T20:41:00.245Z,72.58
2022-09-04T20:43:48.254Z,72.29
2022-09-04T20:52:42.609Z,72.41
2022-09-04T20:52:58.423Z,73.02
2022-09-04T20:53:12.018Z,73.88
2022-09-04T20:55:46.335Z,73.13
2022-09-04T21:03:14.378Z,72.80
2022-09-04T21:03:21.628Z,72.52
2022-09-04T21:04:41.847Z,72.58
2022-09-04T21:07:35.571Z,74.32
2022-09-04T21:10:20.441Z,72.93
2022-09-04T21:13:12.784Z,74.05
2022-09-04T21:16:01.334Z,74.83
2022-09-04T21:18:36.478Z,74.24
2022-09-04T21:21:37.071Z,75.18
2022-09-04T21:24:36.273Z,75.80
2022-09-04T21:27:38.474Z,75.39
2022-09-04T21:30:13.870Z,74.79
2022-09-04T21:33:26.747Z,77.07
2022-09-04T21:36:27.630Z,75.35
2022-09-04T21:39:21.495Z,75.81
2022-09-04T21:42:24.911Z,76.36
2022-09-04T21:45:14.908Z,76.20
2022-09-04T21:47:44.935Z,76.13
2022-09-04T21:50:28.377Z,76.63
2022-09-04T21:53:33.145Z,76.94
2022-09-04T21:58:41.219Z,77.36
2022-09-04T22:02:35.611Z,76.95
2022-09-04T22:02:38.285Z,77.79
2022-09-04T22:05:32.084Z,77.05
2022-09-04T22:13:29.292Z,76.62
2022-09-04T22:13:35.446Z,76.48
2022-09-04T22:14:15.384Z,77.37
2022-09-04T22:16:47.708Z,77.17
2022-09-04T22:19:35.328Z,77.05
2022-09-04T22:22:25.342Z,76.99
2022-09-04T22:24:57.477Z,76.67
2022-09-04T22:28:08.256Z,77.15
2022-09-04T22:30:38.025Z,83.41
2022-09-04T22:33:35.986Z,82.65
2022-09-04T22:36:23.116Z,82.54
2022-09-04T22:39:28.380Z,84.98
2022-09-04T22:42:29.022Z,82.26
2022-09-04T22:45:23.777Z,81.03
2022-09-04T22:48:26.531Z,80.77
2022-09-04T22:51:07.698Z,79.55
2022-09-04T22:53:55.459Z,79.18
2022-09-04T22:56:25.534Z,78.72
2022-09-04T22:59:37.915Z,79.08
2022-09-04T23:06:06.746Z,81.02
2022-09-04T23:13:49.525Z,82.86
2022-09-04T23:13:52.293Z,81.58
2022-09-04T23:15:08.691Z,81.39
2022-09-04T23:17:59.553Z,81.10
2022-09-04T23:26:34.844Z,81.30
2022-09-04T23:26:45.675Z,81.34
2022-09-04T23:27:02.107Z,80.61
2022-09-04T23:29:44.728Z,81.81
2022-09-04T23:32:15.986Z,80.81
2022-09-04T23:35:14.191Z,80.46
2022-09-04T23:37:44.600Z,80.44
2022-09-04T23:40:43.884Z,81.18
2022-09-04T23:43:30.794Z,80.53
2022-09-04T23:46:12.529Z,80.66
2022-09-04T23:49:05.581Z,82.34
2022-09-04T23:52:10.461Z,82.01
2022-09-04T23:54:45.881Z,81.98
2022-09-04T23:57:25.989Z,81.39
